Time;durP1;ratioP1;P1;durP2;ratioP2;P2;SDS_P1;SDS_P2;PMS_P1;PMS_P2;Temp;Humidity;BMP_temperature;BMP_pressure;BME280_temperature;BME280_humidity;BME280_pressure;Samples;Min_cycle;Max_cycle;Signal;HPM_P1;HPM_P2
2021/09/18 00:01:19;;;;;;;39.28;26.27;;;16.50;98.10;;;14.41;100.00;100552.41;5088879;28;20691;-72
2021/09/18 00:03:47;;;;;;;47.80;27.85;;;16.50;98.00;;;14.39;100.00;100554.53;5071296;28;20060;-72
2021/09/18 00:06:15;;;;;;;40.83;26.77;;;16.50;98.10;;;14.35;100.00;100555.97;5091871;28;20469;-72
2021/09/18 00:08:43;;;;;;;51.72;31.05;;;16.50;98.00;;;14.30;100.00;100552.16;5090885;28;20047;-72
2021/09/18 00:11:10;;;;;;;47.08;30.58;;;16.50;98.00;;;14.30;100.00;100553.03;5088651;28;20047;-72
2021/09/18 00:13:38;;;;;;;49.75;31.67;;;16.50;97.90;;;14.33;100.00;100551.78;5089205;28;20164;-72
2021/09/18 00:16:06;;;;;;;53.35;33.97;;;16.40;97.80;;;14.35;100.00;100545.03;5089037;28;20054;-72
2021/09/18 00:18:34;;;;;;;54.05;33.53;;;16.40;98.00;;;14.36;100.00;100552.19;5090465;28;20052;-72
2021/09/18 00:21:02;;;;;;;54.13;34.63;;;16.40;98.10;;;14.39;100.00;100557.28;5088667;28;20446;-72
2021/09/18 00:23:31;;;;;;;54.45;33.63;;;16.40;98.10;;;14.38;100.00;100560.22;5089021;28;20149;-72
2021/09/18 00:25:59;;;;;;;60.70;36.38;;;16.40;98.20;;;14.39;100.00;100553.66;5088971;28;20048;-72
2021/09/18 00:28:27;;;;;;;55.50;34.10;;;16.40;98.30;;;14.39;100.00;100557.28;5099053;28;20059;-72
2021/09/18 00:30:54;;;;;;;64.63;35.35;;;16.40;98.50;;;14.39;100.00;100549.06;5088624;28;20094;-72
2021/09/18 00:33:22;;;;;;;58.75;33.75;;;16.40;98.60;;;14.34;100.00;100557.03;5088992;28;20044;-71
2021/09/18 00:35:49;;;;;;;46.13;30.40;;;16.40;98.60;;;14.36;100.00;100557.66;5088764;28;20052;-72
2021/09/18 00:38:18;;;;;;;44.72;27.88;;;16.40;98.80;;;14.42;100.00;100554.09;5070715;28;20585;-72
2021/09/18 00:40:46;;;;;;;44.75;29.02;;;16.40;98.80;;;14.43;100.00;100557.66;5089139;28;20063;-73
2021/09/18 00:43:14;;;;;;;43.15;26.92;;;16.40;98.80;;;14.40;100.00;100549.88;5109223;28;20753;-73
2021/09/18 00:45:42;;;;;;;45.83;28.33;;;16.50;99.00;;;14.36;100.00;100554.94;5108967;28;20078;-73
2021/09/18 00:48:09;;;;;;;39.42;25.83;;;16.40;98.80;;;14.43;100.00;100541.22;5108918;28;20511;-72
2021/09/18 00:50:37;;;;;;;40.53;26.13;;;16.40;98.80;;;14.48;100.00;100544.19;5106909;28;20122;-72
2021/09/18 00:53:04;;;;;;;41.90;26.40;;;16.40;98.90;;;14.47;100.00;100548.00;5096992;28;20044;-72
2021/09/18 00:55:32;;;;;;;48.22;27.58;;;16.50;99.10;;;14.42;100.00;100545.88;5072791;28;20054;-72
2021/09/18 00:58:01;;;;;;;46.63;27.80;;;16.50;99.10;;;14.43;100.00;100549.44;5088561;28;20523;-72
2021/09/18 01:00:29;;;;;;;46.58;28.20;;;16.50;99.10;;;14.42;100.00;100545.88;5091219;28;20074;-72
2021/09/18 01:02:56;;;;;;;45.53;28.10;;;16.50;99.10;;;14.43;100.00;100542.09;5070190;28;20040;-72
2021/09/18 01:05:23;;;;;;;51.80;31.23;;;16.50;99.20;;;14.41;100.00;100543.34;5088445;28;20111;-72
2021/09/18 01:07:54;;;;;;;49.10;30.73;;;16.50;99.30;;;14.38;100.00;100539.13;5088546;28;20074;-73
2021/09/18 01:10:21;;;;;;;45.45;28.30;;;16.50;99.30;;;14.37;100.00;100536.59;5103791;28;20105;-73
2021/09/18 01:13:02;;;;;;;51.65;32.13;;;16.50;99.30;;;14.37;100.00;100540.19;5108694;28;20414;-72
2021/09/18 01:15:31;;;;;;;54.95;30.90;;;16.50;99.20;;;14.35;100.00;100534.06;5108840;28;20047;-73
2021/09/18 01:17:58;;;;;;;58.03;33.10;;;16.50;99.30;;;14.36;100.00;100543.97;5089984;28;20461;-73
2021/09/18 01:20:27;;;;;;;51.35;30.85;;;16.50;99.30;;;14.36;100.00;100541.25;5106491;28;20175;-72
2021/09/18 01:22:59;;;;;;;47.67;29.80;;;16.40;99.20;;;14.38;100.00;100549.25;5089644;28;20806;-73
2021/09/18 01:25:30;;;;;;;48.03;28.73;;;16.40;99.20;;;14.39;100.00;100550.94;5107547;28;20043;-73
2021/09/18 01:27:57;;;;;;;46.45;28.40;;;16.50;99.20;;;14.39;100.00;100548.19;5107888;28;20093;-72
2021/09/18 01:30:28;;;;;;;42.60;26.75;;;16.50;99.30;;;14.40;100.00;100553.47;5090103;28;20048;-72
2021/09/18 01:32:56;;;;;;;43.83;27.23;;;16.40;99.20;;;14.44;100.00;100557.47;5087053;28;20574;-73
2021/09/18 01:35:24;;;;;;;47.88;28.33;;;16.40;99.20;;;14.48;100.00;100557.88;5069245;28;20044;-73
2021/09/18 01:37:52;;;;;;;41.28;26.27;;;16.50;99.40;;;14.48;100.00;100555.97;5052012;28;20055;-73
2021/09/18 01:40:23;;;;;;;43.30;27.55;;;16.50;99.50;;;14.44;100.00;100556.63;5107362;28;20696;-73
2021/09/18 01:42:53;;;;;;;42.40;26.23;;;16.50;99.60;;;14.42;100.00;100556.81;5069269;28;20082;-73
2021/09/18 01:45:21;;;;;;;40.30;25.88;;;16.50;99.60;;;14.41;100.00;100562.50;5069127;28;20044;-73
2021/09/18 01:47:52;;;;;;;41.03;25.88;;;16.50;99.70;;;14.38;100.00;100563.78;5087441;28;20040;-73
2021/09/18 01:50:26;;;;;;;38.97;25.35;;;16.50;99.70;;;14.34;100.00;100556.22;5087512;28;20040;-73
2021/09/18 01:52:56;;;;;;;41.20;25.77;;;16.50;99.70;;;14.31;100.00;100553.88;5097487;28;20410;-72
2021/09/18 01:55:24;;;;;;;44.05;25.55;;;16.50;99.60;;;14.27;100.00;100554.28;5105174;28;20048;-72
2021/09/18 01:57:55;;;;;;;47.75;26.80;;;16.50;99.60;;;14.24;100.00;100553.84;5102627;28;20112;-73
2021/09/18 02:00:24;;;;;;;35.50;24.17;;;16.50;99.50;;;14.19;100.00;100556.38;5087326;28;20047;-73
2021/09/18 02:02:52;;;;;;;41.15;25.05;;;16.40;99.40;;;14.16;100.00;100551.31;5087158;28;20131;-73
2021/09/18 02:05:22;;;;;;;37.22;24.58;;;16.40;99.30;;;14.12;100.00;100550.88;5087206;28;20036;-73
2021/09/18 02:07:50;;;;;;;37.25;24.25;;;16.40;99.20;;;14.15;100.00;100555.13;5087530;28;20048;-73
2021/09/18 02:10:20;;;;;;;35.85;23.42;;;16.40;99.20;;;14.13;100.00;100551.75;5086896;28;20083;-72
2021/09/18 02:12:48;;;;;;;41.15;23.70;;;16.30;99.30;;;14.12;100.00;100550.03;5088379;28;20040;-73
2021/09/18 02:15:19;;;;;;;37.22;23.58;;;16.30;99.20;;;14.10;100.00;100552.97;5087137;28;20072;-72
2021/09/18 02:17:47;;;;;;;37.80;23.73;;;16.30;99.20;;;14.11;100.00;100543.75;5087219;28;20569;-73
2021/09/18 02:20:16;;;;;;;38.08;23.83;;;16.30;99.10;;;14.06;100.00;100544.34;5086973;28;20048;-73
2021/09/18 02:22:44;;;;;;;35.50;22.08;;;16.20;99.10;;;14.00;100.00;100542.44;5087626;28;20503;-73
2021/09/18 02:25:13;;;;;;;34.30;22.63;;;16.20;98.90;;;14.00;100.00;100542.44;5091000;28;20676;-73
2021/09/18 02:27:41;;;;;;;37.58;23.23;;;16.20;98.90;;;13.94;100.00;100537.81;5072524;28;20076;-73
2021/09/18 02:30:12;;;;;;;34.78;23.33;;;16.20;98.90;;;13.88;100.00;100541.38;5090806;28;20068;-73
2021/09/18 02:32:41;;;;;;;36.83;23.60;;;16.20;98.90;;;13.87;100.00;100542.41;5090505;28;20123;-73
2021/09/18 02:35:11;;;;;;;38.08;23.55;;;16.10;99.00;;;13.87;100.00;100545.13;5090457;28;20710;-73
2021/09/18 02:37:40;;;;;;;38.55;23.02;;;16.10;98.90;;;13.84;100.00;100542.78;5090486;28;20040;-72
2021/09/18 02:40:11;;;;;;;38.08;24.23;;;16.10;98.90;;;13.76;100.00;100535.63;5090501;28;20535;-73
2021/09/18 02:42:40;;;;;;;38.42;23.88;;;16.00;98.80;;;13.77;100.00;100533.75;5094599;28;20032;-73
2021/09/18 02:45:10;;;;;;;39.03;24.13;;;16.00;98.80;;;13.75;100.00;100533.94;5110504;28;20051;-73
2021/09/18 02:47:37;;;;;;;36.92;23.92;;;16.00;98.80;;;13.72;100.00;100533.50;5110632;28;20046;-73
2021/09/18 02:50:09;;;;;;;38.20;23.52;;;16.00;98.80;;;13.69;100.00;100529.31;5110508;28;20118;-72
2021/09/18 02:52:37;;;;;;;45.28;26.05;;;16.00;98.80;;;13.63;100.00;100530.97;5110198;28;20074;-72
2021/09/18 02:55:06;;;;;;;47.92;27.25;;;16.00;98.90;;;13.60;100.00;100523.16;5106932;28;20077;-72
2021/09/18 02:57:33;;;;;;;55.08;30.90;;;15.90;98.70;;;13.59;100.00;100523.34;5071639;28;20082;-73
2021/09/18 03:00:01;;;;;;;59.88;33.08;;;15.90;98.90;;;13.52;100.00;100528.81;5089498;28;20044;-72
2021/09/18 03:02:28;;;;;;;54.08;30.33;;;15.90;98.90;;;13.48;100.00;100527.53;5089602;28;20036;-72
2021/09/18 03:04:55;;;;;;;49.65;27.38;;;15.90;98.90;;;13.51;100.00;100527.13;5089916;28;20048;-73
2021/09/18 03:07:24;;;;;;;39.17;26.10;;;15.80;98.80;;;13.58;100.00;100522.53;5071582;28;20050;-73
2021/09/18 03:09:51;;;;;;;42.40;25.33;;;15.80;98.70;;;13.55;100.00;100519.34;5089924;28;20511;-72
2021/09/18 03:12:19;;;;;;;40.17;24.50;;;15.80;98.70;;;13.48;100.00;100527.53;5071507;28;20098;-72
2021/09/18 03:14:46;;;;;;;40.08;23.08;;;15.80;98.70;;;13.52;100.00;100522.47;5089756;28;20427;-73
2021/09/18 03:17:13;;;;;;;36.15;23.10;;;15.80;98.70;;;13.56;100.00;100524.63;5091737;28;20496;-72
2021/09/18 03:19:41;;;;;;;40.72;23.35;;;15.70;98.70;;;13.57;100.00;100520.00;5089536;28;20126;-73
2021/09/18 03:22:08;;;;;;;43.88;25.85;;;15.70;98.90;;;13.57;100.00;100530.94;5089084;28;20114;-73
2021/09/18 03:24:37;;;;;;;39.13;24.80;;;15.70;98.90;;;13.48;100.00;100528.38;5089656;28;21050;-73
2021/09/18 03:27:05;;;;;;;38.38;24.05;;;15.70;99.00;;;13.43;100.00;100524.56;5089410;28;20068;-73
2021/09/18 03:29:32;;;;;;;45.10;25.10;;;15.70;99.00;;;13.42;100.00;100522.88;5089150;28;20050;-73
2021/09/18 03:32:00;;;;;;;40.50;24.63;;;15.70;99.20;;;13.42;100.00;100523.72;5088938;28;20036;-72
2021/09/18 03:34:27;;;;;;;37.95;25.02;;;15.70;99.10;;;13.45;100.00;100525.19;5088220;28;20051;-72
2021/09/18 03:36:54;;;;;;;40.17;24.70;;;15.70;99.10;;;13.49;100.00;100519.09;5089341;28;20052;-73
2021/09/18 03:39:22;;;;;;;47.15;27.20;;;15.70;99.10;;;13.51;100.00;100521.66;5070320;28;20083;-72
2021/09/18 03:41:51;;;;;;;41.47;25.70;;;15.70;99.20;;;13.52;100.00;100514.28;5095840;28;20092;-73
2021/09/18 03:44:18;;;;;;;41.33;25.77;;;15.70;99.10;;;13.49;100.00;100510.91;5091347;28;20051;-72
2021/09/18 03:46:45;;;;;;;43.85;27.83;;;15.70;99.10;;;13.47;100.00;100504.81;5091185;28;20088;-72
2021/09/18 03:49:13;;;;;;;40.75;26.80;;;15.70;99.10;;;13.43;100.00;100505.44;5108723;28;20040;-73
2021/09/18 03:51:40;;;;;;;47.33;28.85;;;15.70;99.10;;;13.43;100.00;100509.00;5106458;28;20092;-73
2021/09/18 03:54:07;;;;;;;49.10;28.98;;;15.60;98.90;;;13.44;100.00;100505.22;5068918;28;20472;-73
2021/09/18 03:56:35;;;;;;;45.50;29.00;;;15.60;99.00;;;13.43;100.00;100506.25;5088568;28;20044;-73
2021/09/18 03:59:03;;;;;;;49.47;32.03;;;15.60;99.10;;;13.46;100.00;100508.59;5088225;28;20583;-73
2021/09/18 04:01:31;;;;;;;48.53;31.10;;;15.60;99.40;;;13.51;100.00;100510.72;5070535;28;20040;-72
2021/09/18 04:03:59;;;;;;;48.70;29.52;;;15.60;99.40;;;13.60;100.00;100519.59;5089367;28;20078;-73
2021/09/18 04:06:27;;;;;;;48.03;28.13;;;15.60;99.60;;;13.53;100.00;100522.28;5070709;28;20047;-72
2021/09/18 04:08:54;;;;;;;39.45;24.88;;;15.60;99.70;;;13.48;100.00;100528.38;5089031;28;20047;-72
2021/09/18 04:11:21;;;;;;;44.63;25.73;;;15.60;99.70;;;13.52;100.00;100537.03;5088711;28;20373;-73
2021/09/18 04:13:51;;;;;;;35.88;24.17;;;15.60;99.70;;;13.51;100.00;100532.59;5089103;28;20052;-73
2021/09/18 04:16:21;;;;;;;39.88;24.20;;;15.60;99.70;;;13.52;100.00;100539.75;5071237;28;20122;-72
2021/09/18 04:18:49;;;;;;;37.25;22.65;;;15.60;99.70;;;13.44;100.00;100538.03;5089197;28;20086;-73
2021/09/18 04:21:17;;;;;;;33.00;22.02;;;15.70;99.80;;;13.44;100.00;100537.16;5088364;28;20518;-72
2021/09/18 04:23:44;;;;;;;34.22;23.35;;;15.60;99.60;;;13.50;100.00;100539.13;5088824;28;20094;-73
2021/09/18 04:26:12;;;;;;;37.60;24.30;;;15.60;99.50;;;13.44;100.00;100548.09;5088889;28;20748;-72
2021/09/18 04:28:39;;;;;;;39.88;22.98;;;15.60;99.60;;;13.38;100.00;100554.38;5070120;28;20461;-72
2021/09/18 04:31:07;;;;;;;32.90;22.73;;;15.60;99.50;;;13.36;100.00;100551.03;5096942;28;20155;-72
2021/09/18 04:33:36;;;;;;;38.50;22.73;;;15.60;99.40;;;13.28;100.00;100550.09;5107592;28;20043;-73
2021/09/18 04:36:04;;;;;;;36.78;23.45;;;15.60;99.30;;;13.24;100.00;100556.19;5108660;28;20040;-73
2021/09/18 04:38:31;;;;;;;37.80;23.55;;;15.60;99.20;;;13.22;100.00;100556.38;5090015;28;20070;-73
2021/09/18 04:40:59;;;;;;;33.92;22.00;;;15.60;99.20;;;13.23;100.00;100549.00;5108699;28;20072;-72
2021/09/18 04:43:27;;;;;;;33.65;22.88;;;15.50;99.10;;;13.24;100.00;100557.03;5108561;28;20043;-73
2021/09/18 04:45:54;;;;;;;36.90;22.75;;;15.50;99.20;;;13.16;100.00;100559.91;5108324;28;20847;-72
2021/09/18 04:48:21;;;;;;;35.58;22.05;;;15.50;99.00;;;13.12;100.00;100558.63;5090183;28;20044;-72
2021/09/18 04:50:50;;;;;;;34.95;22.27;;;15.50;99.00;;;13.09;100.00;100561.75;5089995;28;20193;-72
2021/09/18 04:55:46;;;;;;;39.40;22.88;;;15.40;98.80;;;13.07;100.00;100564.69;5099342;28;20469;-77
2021/09/18 04:58:14;;;;;;;34.33;23.17;;;15.40;98.70;;;13.03;100.00;100562.56;5089263;28;20442;-77
2021/09/18 05:00:41;;;;;;;33.72;21.60;;;15.30;98.70;;;13.02;100.00;100571.78;5103543;28;20131;-77
2021/09/18 05:03:09;;;;;;;36.20;22.88;;;15.30;98.90;;;13.01;100.00;100576.41;5107336;28;20072;-77
2021/09/18 05:05:36;;;;;;;31.88;22.10;;;15.30;98.80;;;12.99;100.00;100575.78;5107067;28;20122;-77
2021/09/18 05:08:06;;;;;;;35.20;21.70;;;15.30;98.80;;;13.00;100.00;100584.81;5107269;28;20067;-77
2021/09/18 05:10:33;;;;;;;35.75;22.33;;;15.20;98.60;;;13.01;100.00;100578.31;5107126;28;20042;-77
2021/09/18 05:13:02;;;;;;;33.10;21.92;;;15.20;98.70;;;12.99;100.00;100581.25;5088704;28;20500;-77
2021/09/18 05:15:29;;;;;;;36.55;23.13;;;15.20;98.70;;;12.99;100.00;100578.50;5107042;28;20213;-77
2021/09/18 05:17:57;;;;;;;41.60;23.95;;;15.20;98.70;;;12.96;100.00;100580.78;5107080;28;20126;-77
2021/09/18 05:20:25;;;;;;;39.15;23.98;;;15.10;98.70;;;12.91;100.00;100581.41;5106748;28;20568;-77
2021/09/18 05:22:52;;;;;;;40.53;25.13;;;15.10;98.70;;;12.90;100.00;100586.00;5106756;28;20040;-77
2021/09/18 05:25:21;;;;;;;40.55;25.20;;;15.20;98.60;;;12.96;100.00;100589.81;5106907;28;20086;-70
2021/09/18 05:27:49;;;;;;;38.38;24.77;;;15.20;98.70;;;12.93;100.00;100592.09;5088660;28;20036;-70
2021/09/18 05:30:16;;;;;;;42.15;26.55;;;15.10;98.80;;;12.99;100.00;100605.00;5105194;28;20043;-70
2021/09/18 05:32:44;;;;;;;51.78;27.98;;;15.10;98.90;;;13.01;100.00;100602.91;5086186;28;20093;-72
2021/09/18 05:35:12;;;;;;;45.42;26.83;;;15.10;98.90;;;13.00;100.00;100593.84;5086480;28;20489;-71
2021/09/18 05:37:39;;;;;;;43.42;26.77;;;15.10;98.70;;;13.04;100.00;100594.28;5086548;28;20044;-70
2021/09/18 05:40:09;;;;;;;49.55;29.52;;;15.10;98.80;;;13.02;100.00;100602.72;5086429;28;20075;-71
2021/09/18 05:42:38;;;;;;;47.33;27.20;;;15.10;98.90;;;12.97;100.00;100591.53;5085218;28;20495;-71
2021/09/18 05:45:07;;;;;;;40.63;24.50;;;15.20;98.80;;;13.03;100.00;100598.09;5086095;28;20067;-71
2021/09/18 05:47:35;;;;;;;38.38;24.35;;;15.10;98.90;;;13.04;100.00;100602.47;5086271;28;20067;-69
2021/09/18 05:50:02;;;;;;;39.03;23.90;;;15.20;98.90;;;12.98;100.00;100597.81;5086375;28;20144;-69
2021/09/18 05:52:29;;;;;;;40.80;24.60;;;15.10;98.80;;;13.06;100.00;100600.41;5066930;28;20200;-68
2021/09/18 05:54:57;;;;;;;40.30;24.35;;;15.20;98.90;;;13.11;100.00;100600.66;5084757;28;20048;-68
2021/09/18 05:57:24;;;;;;;42.25;26.08;;;15.20;98.90;;;13.18;100.00;100608.91;5086639;28;20464;-68
2021/09/18 05:59:53;;;;;;;46.65;28.02;;;15.20;99.00;;;13.32;100.00;100598.94;5089656;28;20052;-70
2021/09/18 06:02:20;;;;;;;38.65;24.88;;;15.20;99.10;;;13.37;100.00;100599.19;5089812;28;20079;-69
2021/09/18 06:04:48;;;;;;;39.50;24.67;;;15.20;99.20;;;13.44;100.00;100608.25;5090126;28;20051;-70
2021/09/18 06:07:15;;;;;;;39.60;24.55;;;15.20;99.10;;;13.45;100.00;100613.53;5090395;28;20851;-71
2021/09/18 06:09:42;;;;;;;36.88;23.67;;;15.30;99.30;;;13.49;100.00;100611.22;5090218;28;20043;-70
2021/09/18 06:12:10;;;;;;;41.42;24.95;;;15.30;99.40;;;13.54;100.00;100606.00;5088901;28;20361;-70
2021/09/18 06:14:37;;;;;;;35.60;22.20;;;15.30;99.40;;;13.60;100.00;100607.94;5071614;28;20063;-70
2021/09/18 06:17:06;;;;;;;37.78;24.15;;;15.40;99.40;;;13.68;100.00;100615.97;5089927;28;20044;-71
2021/09/18 06:19:34;;;;;;;35.83;23.50;;;15.40;99.40;;;13.81;100.00;100614.34;5090169;28;20072;-71
2021/09/18 06:22:01;;;;;;;33.80;22.70;;;15.50;99.50;;;13.87;100.00;100619.00;5071095;28;20101;-71
2021/09/18 06:24:28;;;;;;;37.85;24.63;;;15.50;99.50;;;14.00;100.00;100608.09;5090185;28;20066;-71
2021/09/18 06:26:56;;;;;;;39.80;24.88;;;15.50;99.50;;;14.17;100.00;100602.28;5071861;28;20082;-70
2021/09/18 06:29:23;;;;;;;40.88;26.80;;;15.50;99.60;;;14.17;100.00;100613.22;5089982;28;20442;-69
2021/09/18 06:31:50;;;;;;;43.00;26.95;;;15.60;99.80;;;14.16;100.00;100606.06;5088445;28;20133;-70
2021/09/18 06:34:19;;;;;;;43.65;27.20;;;15.70;99.80;;;14.25;100.00;100605.66;5089905;28;20564;-70
2021/09/18 06:36:47;;;;;;;45.03;27.50;;;15.70;99.80;;;14.41;100.00;100612.66;5089855;28;20121;-71
2021/09/18 06:39:14;;;;;;;48.00;27.88;;;15.80;99.70;;;14.51;100.00;100615.00;5089684;28;20039;-73
2021/09/18 06:41:42;;;;;;;43.97;25.95;;;15.90;99.80;;;14.58;100.00;100615.88;5089533;28;20568;-71
2021/09/18 06:44:09;;;;;;;42.17;26.63;;;15.90;99.80;;;14.73;100.00;100612.94;5088373;28;20576;-74
2021/09/18 06:46:36;;;;;;;41.13;26.52;;;16.00;99.60;;;14.75;100.00;100620.94;5089794;28;20071;-75
2021/09/18 06:49:04;;;;;;;44.25;26.85;;;16.00;99.70;;;14.84;100.00;100614.22;5109926;28;20043;-74
2021/09/18 06:51:33;;;;;;;41.50;27.08;;;16.10;99.90;;;14.94;100.00;100622.00;5091076;28;20067;-74
2021/09/18 06:54:00;;;;;;;37.60;24.98;;;16.20;99.90;;;15.03;100.00;100618.00;5091418;28;20068;-75
2021/09/18 06:56:27;;;;;;;39.95;26.48;;;16.20;99.80;;;15.10;100.00;100621.59;5109468;28;20089;-75
2021/09/18 06:58:55;;;;;;;43.63;28.88;;;16.30;99.90;;;15.19;100.00;100623.06;5107837;28;20522;-75
2021/09/18 07:01:23;;;;;;;41.35;27.00;;;16.40;99.90;;;15.29;100.00;100621.75;5091215;28;20046;-75
2021/09/18 07:03:51;;;;;;;40.00;27.38;;;16.40;99.90;;;15.42;100.00;100625.34;5109660;28;20039;-75
2021/09/18 07:06:18;;;;;;;44.33;27.83;;;16.50;99.90;;;15.49;100.00;100619.81;5109652;28;20040;-75
2021/09/18 07:08:47;;;;;;;42.35;26.92;;;16.60;99.70;;;15.64;100.00;100620.41;5090386;28;20150;-73
2021/09/18 07:11:14;;;;;;;39.42;26.95;;;16.60;99.60;;;15.71;100.00;100620.41;5109325;28;20594;-73
2021/09/18 07:13:42;;;;;;;44.70;27.52;;;16.60;99.80;;;15.77;100.00;100624.22;5103111;28;20044;-69
2021/09/18 07:16:09;;;;;;;45.05;29.33;;;16.80;99.90;;;15.79;100.00;100627.59;5089101;28;20051;-69
2021/09/18 07:18:37;;;;;;;50.75;31.98;;;16.80;99.90;;;15.86;100.00;100620.19;5088988;28;20047;-69
2021/09/18 07:21:04;;;;;;;51.47;32.83;;;16.90;99.90;;;15.94;100.00;100630.91;5088850;28;20112;-69
2021/09/18 07:23:31;;;;;;;53.25;34.35;;;16.90;99.60;;;15.99;100.00;100624.75;5089081;28;20044;-69
2021/09/18 07:26:00;;;;;;;49.85;33.17;;;17.00;99.60;;;15.97;100.00;100619.50;5088855;28;20039;-69
2021/09/18 07:28:29;;;;;;;61.33;36.70;;;17.00;99.70;;;15.92;100.00;100621.22;5089031;28;20044;-68
2021/09/18 07:30:57;;;;;;;50.53;34.50;;;17.10;99.80;;;15.92;100.00;100624.81;5088661;28;20048;-69
2021/09/18 07:33:24;;;;;;;60.10;36.83;;;17.10;99.60;;;16.01;100.00;100619.91;5089134;28;20048;-69
2021/09/18 07:35:51;;;;;;;53.97;34.33;;;17.20;99.50;;;16.12;100.00;100621.94;5070892;28;20139;-69
2021/09/18 07:38:19;;;;;;;51.15;33.88;;;17.20;99.60;;;16.21;100.00;100615.16;5092295;28;20042;-69
2021/09/18 07:40:46;;;;;;;51.67;33.08;;;17.30;99.60;;;16.38;100.00;100622.88;5090141;28;20639;-69
2021/09/18 07:43:15;;;;;;;52.75;34.22;;;17.40;99.50;;;16.50;100.00;100617.53;5088793;28;20056;-69
2021/09/18 07:45:42;;;;;;;57.67;35.70;;;17.50;99.60;;;16.61;100.00;100623.16;5087776;28;20053;-69
2021/09/18 07:48:10;;;;;;;47.97;31.85;;;17.50;99.40;;;16.73;100.00;100631.50;5087448;28;20048;-69
2021/09/18 07:50:37;;;;;;;51.03;34.08;;;17.60;99.40;;;16.87;100.00;100629.56;5073405;28;20163;-69
2021/09/18 07:53:06;;;;;;;54.85;35.50;;;17.70;99.70;;;16.91;99.64;100625.28;5091351;28;20820;-70
2021/09/18 07:55:34;;;;;;;57.65;37.95;;;17.80;99.50;;;16.99;98.67;100626.94;5088037;28;20093;-69
2021/09/18 07:58:03;;;;;;;56.05;35.00;;;17.80;98.80;;;17.08;98.22;100622.84;5088156;28;20040;-70
2021/09/18 08:00:32;;;;;;;56.38;37.08;;;17.80;98.80;;;17.19;99.11;100627.59;5088158;28;20468;-69
2021/09/18 08:02:59;;;;;;;58.13;37.97;;;17.90;99.30;;;17.29;98.94;100627.09;5088783;28;20402;-69
2021/09/18 08:05:27;;;;;;;65.72;41.75;;;18.00;99.30;;;17.35;98.43;100626.16;5089024;28;20048;-69
2021/09/18 08:07:54;;;;;;;61.92;42.47;;;18.10;99.30;;;17.46;98.96;100627.34;5088719;28;20048;-70
2021/09/18 08:10:22;;;;;;;72.68;46.03;;;18.20;99.50;;;17.63;99.25;100629.47;5090648;28;20059;-71
2021/09/18 08:12:49;;;;;;;73.22;47.42;;;18.30;99.90;;;17.66;98.69;100629.03;5090890;28;20059;-71
2021/09/18 08:15:18;;;;;;;67.45;45.67;;;18.40;99.50;;;17.75;99.38;100624.91;5082682;28;20101;-71
2021/09/18 08:17:48;;;;;;;77.25;48.45;;;18.50;99.80;;;17.79;99.32;100623.38;5088662;28;20032;-71
2021/09/18 08:20:18;;;;;;;74.50;45.78;;;18.60;99.90;;;17.80;97.85;100622.31;5069901;28;20533;-71
2021/09/18 08:22:46;;;;;;;80.40;47.17;;;18.60;99.20;;;17.83;96.78;100626.50;5053471;28;20055;-71
2021/09/18 08:25:14;;;;;;;82.50;49.25;;;18.70;98.30;;;17.84;96.65;100622.66;5070160;28;20044;-71
2021/09/18 08:27:41;;;;;;;77.63;48.17;;;18.70;97.90;;;17.84;96.32;100629.06;5069056;28;20051;-71
2021/09/18 08:30:11;;;;;;;75.15;46.28;;;18.70;97.70;;;17.94;95.73;100629.34;5094631;28;20142;-73
2021/09/18 08:32:38;;;;;;;74.68;47.60;;;18.80;97.30;;;18.01;95.17;100629.28;5084230;28;20079;-72
2021/09/18 08:35:09;;;;;;;78.40;48.30;;;18.80;97.30;;;18.07;94.66;100638.53;5073284;28;20039;-72
2021/09/18 08:37:37;;;;;;;78.57;51.13;;;18.80;96.80;;;18.08;93.71;100632.78;5077178;28;20051;-72
2021/09/18 08:40:06;;;;;;;76.55;48.42;;;18.90;96.20;;;18.12;94.64;100636.75;5089890;28;20128;-72
2021/09/18 08:42:34;;;;;;;83.22;52.60;;;18.90;96.70;;;18.16;94.57;100639.88;5094351;28;20052;-72
2021/09/18 08:45:02;;;;;;;85.53;52.42;;;19.00;96.60;;;18.14;93.36;100648.41;5088360;28;20196;-72
2021/09/18 08:47:31;;;;;;;82.60;52.72;;;19.00;95.70;;;18.16;92.49;100649.00;5093595;28;20119;-72
2021/09/18 08:50:04;;;;;;;78.80;48.25;;;19.10;95.00;;;18.19;92.04;100650.44;5088993;28;20043;-72
2021/09/18 08:52:33;;;;;;;80.25;50.55;;;19.10;94.80;;;18.28;92.42;100651.81;5093245;28;20035;-73
2021/09/18 08:55:01;;;;;;;85.47;51.35;;;19.10;95.00;;;18.31;92.43;100650.50;5098528;28;20036;-72
2021/09/18 08:57:28;;;;;;;73.97;49.10;;;19.20;95.00;;;18.39;94.08;100652.09;5087065;28;20460;-71
2021/09/18 08:59:55;;;;;;;72.95;46.25;;;19.30;96.20;;;18.42;92.83;100651.63;5080409;28;20059;-71
2021/09/18 09:02:27;;;;;;;71.72;44.05;;;19.30;95.20;;;18.42;92.32;100643.38;5098059;28;20051;-72
2021/09/18 09:05:05;;;;;;;71.18;44.88;;;19.40;94.50;;;18.47;94.50;100655.38;5101678;28;20040;-71
2021/09/18 09:07:34;;;;;;;75.63;46.88;;;19.40;95.90;;;18.49;92.02;100647.72;5075517;28;20059;-71
2021/09/18 09:10:04;;;;;;;79.55;49.88;;;19.50;94.60;;;18.49;91.58;100652.38;5095317;28;20183;-71
2021/09/18 09:12:34;;;;;;;79.10;46.72;;;19.50;93.80;;;18.55;92.00;100646.78;5092914;28;20044;-71
2021/09/18 09:15:04;;;;;;;80.13;46.78;;;19.50;94.20;;;18.58;90.58;100647.38;5091149;28;20101;-71
2021/09/18 09:17:36;;;;;;;71.78;46.47;;;19.60;93.10;;;18.63;90.30;100653.03;5094112;28;20134;-69
2021/09/18 09:20:05;;;;;;;78.65;48.80;;;19.60;93.10;;;18.62;89.39;100652.19;5089689;28;20047;-70
2021/09/18 09:22:42;;;;;;;80.93;48.58;;;19.60;92.40;;;18.68;89.53;100654.00;5096071;28;20060;-70
2021/09/18 09:25:31;;;;;;;73.13;46.67;;;19.60;92.30;;;18.75;88.48;100643.72;5069941;28;20503;-69
2021/09/18 09:28:20;;;;;;;76.35;46.65;;;19.60;92.40;;;18.85;89.26;100650.59;5094075;28;20028;-70
2021/09/18 09:30:48;;;;;;;75.70;46.22;;;19.70;93.00;;;18.96;89.37;100649.78;5099802;28;20124;-70
2021/09/18 09:33:16;;;;;;;78.45;47.90;;;19.70;93.10;;;18.94;88.32;100654.69;5096183;28;20036;-70
2021/09/18 09:35:45;;;;;;;77.30;48.83;;;19.70;92.20;;;18.99;89.35;100649.31;5102548;28;20456;-70
2021/09/18 09:38:14;;;;;;;73.40;48.13;;;19.80;92.80;;;18.97;88.06;100653.41;5092246;28;20241;-69
2021/09/18 09:40:45;;;;;;;69.70;44.13;;;19.80;92.10;;;18.98;87.89;100653.13;5080375;28;20105;-70
2021/09/18 09:43:18;;;;;;;;;;;19.80;91.90;;;18.99;88.81;100654.84;5083861;28;20892;-69
2021/09/18 09:45:47;;;;;;;67.05;39.35;;;19.90;92.60;;;19.04;86.86;100652.22;5093691;28;19923;-69
2021/09/18 09:48:16;;;;;;;55.22;37.28;;;19.90;91.00;;;19.10;86.36;100656.78;5094644;28;20039;-70
2021/09/18 09:50:55;;;;;;;53.10;35.03;;;20.00;91.20;;;19.14;85.34;100655.22;5082928;28;20522;-70
2021/09/18 09:53:27;;;;;;;57.63;37.97;;;20.00;90.50;;;19.18;85.89;100652.00;5101640;28;20044;-70
2021/09/18 09:55:55;;;;;;;61.25;39.80;;;20.00;90.50;;;19.20;85.73;100652.59;5092415;28;20062;-70
2021/09/18 09:58:23;;;;;;;61.53;40.53;;;20.00;90.60;;;19.20;85.75;100653.41;5093594;28;20367;-70
2021/09/18 10:00:52;;;;;;;64.13;43.00;;;20.00;90.30;;;19.13;84.45;100652.69;5090256;28;20044;-70
2021/09/18 10:03:22;;;;;;;63.58;42.10;;;20.00;89.10;;;19.13;85.33;100658.19;5098508;28;20071;-70